• Join FlightAware (Why Join?)
  • Login
  • US Flag 
04:02AM EDT


 

Airport Tracker/Info


-or-


 

Live Flight TrackerFlight Track Log ✈ N453AM ✈ 02-Mar-2012 ✈ KLAS - KAMA

Flight Track Log - Related Links

Times and Time Zones

All times are in EST time to prevent confusion due to time zone crossing. See the N453AM flight status page for this flight to view local times or setup timezone preferences in your user account.

Time Position Orientation Groundspeed Altitude Reporting Facility
EST Latitude Longitude Course Direction KTS MPH feet Rate Location/Type
08:42PM 35.8178 -115.0545 13° North  Level FlightAware Approximate
08:44PM 36.0981 -114.9775 101° East 281 323 10,500  Level Los Angeles Center
08:45PM 36.0803 -114.8594 102° East 312 359 13,700 3,420 Climbing Los Angeles Center
08:46PM 36.0603 -114.7442 100° East 333 383 17,400 2,700 Climbing Los Angeles Center
08:47PM 36.0422 -114.6239 102° East 343 395 19,100 1,680 Climbing Los Angeles Center
08:48PM 36.0194 -114.4883 101° East 367 422 20,800 2,400 Climbing Los Angeles Center
08:49PM 35.9989 -114.3525 102° East 388 447 23,900 2,880 Climbing Los Angeles Center
08:50PM 35.9761 -114.2197 101° East 394 453 26,600 2,400 Climbing Los Angeles Center
08:51PM 35.9550 -114.0842 102° East 394 453 28,800 2,160 Climbing Los Angeles Center
08:52PM 35.9319 -113.9461 101° East 394 453 31,000 2,040 Climbing Los Angeles Center
08:53PM 35.9106 -113.8058 91° East 405 466 32,900 1,800 Climbing Los Angeles Center
08:54PM 35.9078 -113.6622 91° East 411 473 34,600 1,800 Climbing Los Angeles Center
08:55PM 35.9047 -113.5214 90° East 411 473 36,600 1,200 Climbing Los Angeles Center
08:56PM 35.9036 -113.3753 91° East 411 473 37,000 180 Climbing Los Angeles Center
08:57PM 35.9019 -113.2164 91° East 435 501 37,000  Level Los Angeles Center
08:58PM 35.9000 -113.0472 91° East 465 535 37,000  Level Los Angeles Center
08:59PM 35.8975 -112.8756 91° East 488 562 37,000  Level Los Angeles Center
09:00PM 35.8950 -112.7064 91° East 494 568 37,000  Level Los Angeles Center
09:01PM 35.8889 -112.4314 91° East 502 578 37,000  Level Denver Center
09:02PM 35.8856 -112.2594 91° East 507 583 37,000  Level Denver Center
09:03PM 35.8836 -112.0878 92° East 507 583 37,000  Level Denver Center
09:04PM 35.8775 -111.9158 91° East 501 577 37,000  Level Denver Center
09:05PM 35.8750 -111.7494 92° East 501 577 37,000  Level Denver Center
09:06PM 35.8703 -111.5800 92° East 501 577 37,000  Level Denver Center
09:07PM 35.8667 -111.4264 92° East 501 577 37,000  Level Denver Center
09:08PM 35.8614 -111.2569 93° East 501 577 37,000  Level Denver Center
09:09PM 35.8542 -111.0850 91° East 501 577 37,000  Level Denver Center
09:10PM 35.8506 -110.9108 92° East 501 577 37,000  Level Denver Center
09:11PM 35.8447 -110.7417 92° East 501 577 37,000  Level Denver Center
09:12PM 35.8408 -110.5650 93° East 501 577 37,000  Level Denver Center
09:13PM 35.8322 -110.3931 92° East 501 577 37,000  Level Denver Center
09:14PM 35.8264 -110.2011 92° East 501 577 37,000 120 Level Denver Center
09:17PM 35.8144 -109.7844 92° East 515 593 37,600 420 Climbing Albuquerque Center
09:18PM 35.8092 -109.6253 93° East 509 586 38,500 720 Climbing Albuquerque Center
09:19PM 35.8000 -109.4408 93° East 496 571 39,100 240 Climbing Albuquerque Center
09:20PM 35.7925 -109.2714 93° East 496 571 39,000 -60 Descending Albuquerque Center
09:21PM 35.7867 -109.1125 94° East 505 581 39,000  Level Albuquerque Center
09:22PM 35.7767 -108.9178 94° East 519 597 39,000  Level Albuquerque Center
09:23PM 35.7664 -108.7383 93° East 519 597 39,000  Level Albuquerque Center
09:24PM 35.7597 -108.5797 93° East 526 605 39,000  Level Albuquerque Center
09:25PM 35.7511 -108.4003 93° East 526 605 39,000  Level Albuquerque Center
09:26PM 35.7422 -108.2006 94° East 521 600 39,000  Level Albuquerque Center
09:27PM 35.7308 -108.0214 94° East 521 600 39,000  Level Albuquerque Center
09:28PM 35.7211 -107.8600 94° East 521 600 39,000  Level Albuquerque Center
09:29PM 35.7092 -107.6631 94° East 521 600 39,000  Level Albuquerque Center
09:30PM 35.6992 -107.4839 94° East 521 600 39,000  Level Albuquerque Center
09:31PM 35.6889 -107.2997 95° East 521 600 39,000  Level Albuquerque Center
09:32PM 35.6781 -107.1414 95° East 526 605 39,000  Level Albuquerque Center
09:33PM 35.6631 -106.9444 94° East 526 605 39,000  Level Albuquerque Center
09:34PM 35.6539 -106.7631 94° East 520 598 39,000  Level Albuquerque Center
09:35PM 35.6425 -106.5842 95° East 520 598 39,000  Level Albuquerque Center
09:36PM 35.6308 -106.4208 95° East 526 605 39,000  Level Albuquerque Center
09:37PM 35.6167 -106.2217 94° East 533 613 39,000  Level Albuquerque Center
09:38PM 35.6064 -106.0403 94° East 538 619 39,000  Level Albuquerque Center
09:39PM 35.5961 -105.8719 96° East 538 619 39,000  Level Albuquerque Center
09:40PM 35.5811 -105.6883 96° East 543 625 39,000  Level Albuquerque Center
09:41PM 35.5636 -105.4894 95° East 533 613 39,000  Level Albuquerque Center
09:42PM 35.5503 -105.3061 94° East 533 613 39,000  Level Albuquerque Center
09:43PM 35.5408 -105.1250 96° East 538 619 39,000  Level Albuquerque Center
09:44PM 35.5247 -104.9417 96° East 538 619 39,000  Level Albuquerque Center
09:45PM 35.5083 -104.7586 95° East 538 619 39,000  Level Albuquerque Center
09:46PM 35.4961 -104.5906 96° East 538 619 39,000  Level Albuquerque Center
09:47PM 35.4792 -104.4075 96° East 538 619 39,000  Level Albuquerque Center
09:48PM 35.4642 -104.2269 96° East 538 619 39,000 -360 Level Albuquerque Center
09:49PM 35.4461 -104.0211 96° East 538 619 38,300 -1,140 Descending Albuquerque Center
09:50PM 35.4308 -103.8458 96° East 538 619 36,800 -1,920 Descending Albuquerque Center
09:51PM 35.4150 -103.6681 96° East 526 605 34,500 -2,400 Descending Albuquerque Center
09:52PM 35.3986 -103.4828 97° East 532 612 32,100 -1,800 Descending Albuquerque Center
09:53PM 35.3800 -103.2978 96° East 547 629 31,000 -600 Descending Albuquerque Center
09:54PM 35.3653 -103.1125 98° East 555 639 31,000  Level Albuquerque Center
09:55PM 35.3439 -102.9253 96° East 555 639 31,100 -1,860 Climbing Albuquerque Center
09:56PM 35.3294 -102.7656 97° East 549 632 27,300 -4,620 Descending Albuquerque Center
09:57PM 35.3122 -102.5883 98° East 505 581 21,800 -4,560 Descending Albuquerque Center
09:58PM 35.2961 -102.4519 96° East 453 521 18,200 -3,420 Descending Albuquerque Center
09:59PM 35.2850 -102.3306 102° East 396 456 15,100 -3,600 Descending Albuquerque Center
10:00PM 35.2656 -102.2172 110° East 356 410 11,000 -2,700 Descending Albuquerque Center
10:01PM 35.2386 -102.1275 109° East 314 361 9,700 -1,380 Descending Albuquerque Center
10:02PM 35.2139 -102.0400 89° East 284 327 8,300 -1,440 Descending Albuquerque Center
10:09PM 35.2167 -101.7000 89° East  Level FlightAware Approximate